TimeCDT,TemperatureF,Dew PointF,Humidity,Sea Level PressureIn,VisibilityMPH,Wind Direction,Wind SpeedMPH,Gust SpeedMPH,PrecipitationIn,Events,Conditions,WindDirDegrees,DateUTC
12:11 AM,50.0,48.2,94,30.17,4.0,NNE,6.9,-,0.01,Rain,Light Rain,20,2013-04-27 05:11:00
12:52 AM,50.0,48.0,93,30.15,3.0,NNE,5.8,-,0.01,Rain,Light Rain,30,2013-04-27 05:52:00
1:09 AM,50.0,48.2,94,30.17,2.5,NNE,4.6,-,0.00,Rain,Light Rain,30,2013-04-27 06:09:00
1:21 AM,50.0,48.2,94,30.17,4.0,NNE,5.8,-,0.00,Rain,Light Rain,30,2013-04-27 06:21:00
1:52 AM,50.0,48.0,93,30.14,6.0,NE,5.8,-,0.00,Rain,Light Rain,40,2013-04-27 06:52:00
2:52 AM,50.0,48.0,93,30.13,3.0,Calm,Calm,-,0.00,,Overcast,0,2013-04-27 07:52:00
3:52 AM,50.0,46.9,89,30.11,8.0,NNE,4.6,-,N/A,,Overcast,20,2013-04-27 08:52:00
4:52 AM,50.0,46.9,89,30.11,10.0,North,5.8,-,N/A,,Overcast,350,2013-04-27 09:52:00
5:28 AM,48.2,46.4,93,30.13,2.0,North,6.9,-,N/A,,Overcast,350,2013-04-27 10:28:00
5:45 AM,48.2,46.4,93,30.13,5.0,North,6.9,-,N/A,,Overcast,360,2013-04-27 10:45:00
5:52 AM,48.9,46.9,93,30.12,5.0,North,5.8,-,N/A,,Overcast,360,2013-04-27 10:52:00
6:35 AM,50.0,46.4,87,30.13,10.0,North,6.9,-,N/A,,Overcast,10,2013-04-27 11:35:00
6:52 AM,50.0,46.9,89,30.12,7.0,North,6.9,-,N/A,,Overcast,350,2013-04-27 11:52:00
7:52 AM,50.0,46.9,89,30.13,9.0,North,6.9,-,N/A,,Overcast,360,2013-04-27 12:52:00
8:52 AM,51.1,48.0,89,30.14,7.0,North,10.4,-,N/A,,Overcast,350,2013-04-27 13:52:00
9:52 AM,51.1,48.0,89,30.14,6.0,NNW,11.5,-,N/A,,Overcast,340,2013-04-27 14:52:00
10:52 AM,52.0,48.0,86,30.14,10.0,NNW,13.8,20.7,N/A,,Overcast,340,2013-04-27 15:52:00
11:39 AM,53.6,48.2,82,30.17,10.0,NNW,11.5,-,N/A,,Overcast,330,2013-04-27 16:39:00
11:52 AM,55.0,48.9,80,30.14,10.0,North,9.2,-,N/A,,Overcast,360,2013-04-27 16:52:00
12:04 PM,57.2,48.2,72,30.16,10.0,North,8.1,-,N/A,,Overcast,350,2013-04-27 17:04:00
12:52 PM,60.1,48.0,64,30.12,10.0,ENE,5.8,-,N/A,,Mostly Cloudy,70,2013-04-27 17:52:00
1:04 PM,60.8,48.2,63,30.14,10.0,Calm,Calm,-,N/A,,Scattered Clouds,0,2013-04-27 18:04:00
1:52 PM,62.1,48.9,62,30.09,10.0,East,3.5,-,N/A,,Clear,100,2013-04-27 18:52:00
2:52 PM,64.0,48.9,58,30.07,10.0,ENE,6.9,-,N/A,,Partly Cloudy,60,2013-04-27 19:52:00
3:52 PM,66.0,48.9,54,30.04,10.0,WNW,3.5,-,N/A,,Clear,300,2013-04-27 20:52:00
4:52 PM,66.9,48.9,52,30.01,10.0,Calm,Calm,-,N/A,,Clear,0,2013-04-27 21:52:00
5:52 PM,66.9,50.0,54,30.00,10.0,Calm,Calm,-,N/A,,Clear,0,2013-04-27 22:52:00
6:52 PM,66.0,48.9,54,30.00,10.0,South,5.8,-,N/A,,Clear,190,2013-04-27 23:52:00
7:52 PM,63.0,51.1,65,29.98,10.0,SE,5.8,-,N/A,,Clear,140,2013-04-28 00:52:00
8:52 PM,57.9,50.0,75,29.98,10.0,SE,6.9,-,N/A,,Clear,130,2013-04-28 01:52:00
9:52 PM,54.0,48.0,80,30.00,10.0,ESE,3.5,-,N/A,,Clear,120,2013-04-28 02:52:00
10:52 PM,53.1,48.9,86,30.00,10.0,ESE,5.8,-,N/A,,Clear,120,2013-04-28 03:52:00
11:52 PM,52.0,48.9,89,30.00,10.0,SE,5.8,-,N/A,,Clear,140,2013-04-28 04:52:00